Time;durP1;ratioP1;P1;durP2;ratioP2;P2;SDS_P1;SDS_P2;PMS_P1;PMS_P2;Temp;Humidity;BMP_temperature;BMP_pressure;BME280_temperature;BME280_humidity;BME280_pressure;Samples;Min_cycle;Max_cycle;Signal;HPM_P1;HPM_P2
2021/01/01 00:00:09;;;;;;;74.53;53.13;;;9.40;99.90;;;;;;5016131;28;20196;-84
2021/01/01 00:02:35;;;;;;;76.20;50.40;;;9.40;99.90;;;;;;5016082;28;20717;-84
2021/01/01 00:05:02;;;;;;;77.50;52.60;;;9.30;99.90;;;;;;5016338;28;20223;-84
2021/01/01 00:07:29;;;;;;;76.78;52.95;;;9.30;99.90;;;;;;5016104;28;20220;-83
2021/01/01 00:09:55;;;;;;;97.13;58.53;;;9.30;99.90;;;;;;5016099;28;20196;-83
2021/01/01 00:12:21;;;;;;;83.20;55.83;;;9.30;99.90;;;;;;5016044;28;20192;-83
2021/01/01 00:14:47;;;;;;;76.72;54.78;;;9.30;99.90;;;;;;5015776;28;20221;-84
2021/01/01 00:17:14;;;;;;;79.10;52.80;;;9.40;99.90;;;;;;5015758;28;20651;-84
2021/01/01 00:19:40;;;;;;;73.60;48.72;;;9.30;99.90;;;;;;5015662;28;20207;-83
2021/01/01 00:22:10;;;;;;;66.95;47.28;;;9.30;99.90;;;;;;5015946;28;20196;-84
2021/01/01 00:24:36;;;;;;;63.97;45.92;;;9.20;99.90;;;;;;5015825;28;20567;-84
2021/01/01 00:27:03;;;;;;;60.13;42.60;;;9.20;99.90;;;;;;5015505;28;20228;-84
2021/01/01 00:29:29;;;;;;;61.28;41.35;;;9.20;99.90;;;;;;5015597;28;20199;-84
2021/01/01 00:31:55;;;;;;;59.47;40.50;;;9.30;99.90;;;;;;5015150;28;20215;-84
2021/01/01 00:34:22;;;;;;;59.67;40.50;;;9.30;99.90;;;;;;5015615;28;20246;-84
2021/01/01 00:36:48;;;;;;;53.67;37.67;;;9.30;99.90;;;;;;5015725;28;20204;-84
2021/01/01 00:39:15;;;;;;;52.50;39.80;;;9.30;99.90;;;;;;5015404;28;20200;-83
2021/01/01 00:41:41;;;;;;;56.28;39.90;;;9.40;99.90;;;;;;5015149;28;20204;-84
2021/01/01 00:44:07;;;;;;;56.38;35.13;;;9.40;99.90;;;;;;5015444;28;20347;-84
2021/01/01 00:46:33;;;;;;;51.33;32.10;;;9.40;99.90;;;;;;5015164;28;20224;-84
2021/01/01 00:49:00;;;;;;;51.20;35.08;;;9.40;99.90;;;;;;5015239;28;20230;-84
2021/01/01 00:51:28;;;;;;;52.00;38.47;;;9.30;99.90;;;;;;5015191;28;20538;-84
2021/01/01 00:53:55;;;;;;;52.60;35.35;;;9.30;99.90;;;;;;5015278;28;20207;-84
2021/01/01 00:56:21;;;;;;;48.08;38.30;;;9.20;99.90;;;;;;5015061;28;20208;-82
2021/01/01 00:58:50;;;;;;;49.78;35.53;;;9.20;99.90;;;;;;5015136;28;20196;-84
2021/01/01 01:01:16;;;;;;;56.72;37.88;;;9.20;99.90;;;;;;5015200;28;20197;-84
2021/01/01 01:03:42;;;;;;;49.17;33.15;;;9.20;99.90;;;;;;5015145;28;20196;-84
2021/01/01 01:06:09;;;;;;;52.72;34.67;;;9.30;99.90;;;;;;5015178;28;20223;-84
2021/01/01 01:08:36;;;;;;;42.88;31.40;;;9.30;99.90;;;;;;5013919;28;20192;-84
2021/01/01 01:11:03;;;;;;;45.30;31.60;;;9.20;99.90;;;;;;5014917;28;20341;-84
2021/01/01 01:13:29;;;;;;;44.00;32.38;;;9.20;99.90;;;;;;5014524;28;20251;-83
2021/01/01 01:15:55;;;;;;;47.47;29.40;;;9.30;99.90;;;;;;5014777;28;20545;-84
2021/01/01 01:18:21;;;;;;;41.33;28.58;;;9.30;99.90;;;;;;5014794;28;20211;-84
2021/01/01 01:20:48;;;;;;;41.60;29.58;;;9.40;99.90;;;;;;5014538;28;20197;-85
2021/01/01 01:23:14;;;;;;;46.85;29.85;;;9.50;99.90;;;;;;5014723;28;20208;-84
2021/01/01 01:25:41;;;;;;;45.72;31.77;;;9.50;99.90;;;;;;5014673;28;20203;-82
2021/01/01 01:28:07;;;;;;;43.40;30.77;;;9.40;99.90;;;;;;5014606;28;20193;-85
2021/01/01 01:30:33;;;;;;;50.78;33.08;;;9.30;99.90;;;;;;5014495;28;20204;-84
2021/01/01 01:33:00;;;;;;;50.78;32.15;;;9.30;99.90;;;;;;5014324;28;20228;-84
2021/01/01 01:35:26;;;;;;;45.67;32.45;;;9.30;99.90;;;;;;5014508;28;20242;-84
2021/01/01 01:37:52;;;;;;;47.75;33.17;;;9.20;99.90;;;;;;5014397;28;20215;-84
2021/01/01 01:40:18;;;;;;;44.05;31.10;;;9.20;99.90;;;;;;5014204;28;20200;-83
2021/01/01 01:42:45;;;;;;;55.03;31.92;;;9.20;99.90;;;;;;5014458;28;20203;-84
2021/01/01 01:45:13;;;;;;;45.65;31.08;;;9.30;99.90;;;;;;5014259;28;20216;-84
2021/01/01 01:47:40;;;;;;;42.25;30.02;;;9.30;99.90;;;;;;5014646;28;20235;-84
2021/01/01 01:50:07;;;;;;;49.30;32.50;;;9.20;99.90;;;;;;5014105;28;20200;-84
2021/01/01 01:52:35;;;;;;;43.88;30.83;;;9.10;99.90;;;;;;5014462;28;20648;-85
2021/01/01 01:55:02;;;;;;;50.45;33.47;;;9.10;99.90;;;;;;5014373;28;20196;-80
2021/01/01 01:57:29;;;;;;;42.45;30.70;;;9.00;99.90;;;;;;5014042;28;20548;-83
2021/01/01 02:00:00;;;;;;;48.53;31.23;;;8.90;99.90;;;;;;5013989;28;20192;-85
2021/01/01 02:02:27;;;;;;;45.67;32.97;;;8.90;99.90;;;;;;5014056;28;20207;-85
2021/01/01 02:04:54;;;;;;;42.20;30.08;;;8.80;99.90;;;;;;5013882;28;20219;-84
2021/01/01 02:07:20;;;;;;;45.90;32.05;;;8.80;99.90;;;;;;5014078;28;20232;-82
2021/01/01 02:09:47;;;;;;;43.17;31.40;;;8.80;99.90;;;;;;5014040;28;20200;-84
2021/01/01 02:12:15;;;;;;;44.80;31.00;;;8.80;99.90;;;;;;5013968;28;20218;-84
2021/01/01 02:14:41;;;;;;;46.92;33.75;;;8.80;99.90;;;;;;5013577;28;20222;-84
2021/01/01 02:17:08;;;;;;;46.33;32.28;;;8.60;99.90;;;;;;5013835;28;20193;-84
2021/01/01 02:19:35;;;;;;;43.65;30.83;;;8.50;99.90;;;;;;5013537;28;20192;-84
2021/01/01 02:22:32;;;;;;;44.15;31.70;;;8.40;99.90;;;;;;5013678;28;20200;-84
2021/01/01 02:24:58;;;;;;;58.20;29.30;;;8.40;99.90;;;;;;5013445;28;20672;-84
2021/01/01 02:27:24;;;;;;;43.22;29.33;;;8.40;99.90;;;;;;5013824;28;20232;-84
2021/01/01 02:29:51;;;;;;;47.10;29.33;;;8.40;99.90;;;;;;5013485;28;20705;-83
2021/01/01 02:32:17;;;;;;;38.17;26.58;;;8.50;99.90;;;;;;5013597;28;20224;-84
2021/01/01 02:34:43;;;;;;;40.65;28.67;;;8.50;99.90;;;;;;5013637;28;20200;-84
2021/01/01 02:37:09;;;;;;;38.28;27.58;;;8.60;99.90;;;;;;5013579;28;20192;-84
2021/01/01 02:39:37;;;;;;;39.78;26.02;;;8.60;99.90;;;;;;5013561;28;20258;-84
2021/01/01 02:42:04;;;;;;;35.05;25.05;;;8.60;99.90;;;;;;5013533;28;20238;-84
2021/01/01 02:44:30;;;;;;;40.20;27.73;;;8.50;99.90;;;;;;5013457;28;20220;-84
2021/01/01 02:47:00;;;;;;;40.25;26.27;;;8.40;99.90;;;;;;5013529;28;20239;-84
2021/01/01 02:49:26;;;;;;;38.53;26.23;;;8.30;99.90;;;;;;5013416;28;20196;-84
2021/01/01 02:51:52;;;;;;;41.75;28.15;;;8.20;99.90;;;;;;5013546;28;20648;-84
2021/01/01 02:54:19;;;;;;;41.95;26.73;;;8.20;99.90;;;;;;5013504;28;20196;-84
2021/01/01 02:56:46;;;;;;;42.15;28.65;;;8.10;99.90;;;;;;5013570;28;20203;-84
2021/01/01 02:59:12;;;;;;;42.80;30.60;;;8.20;99.90;;;;;;5013468;28;20200;-84
2021/01/01 03:01:38;;;;;;;48.80;32.13;;;8.30;99.90;;;;;;5013476;28;20606;-85
2021/01/01 03:04:05;;;;;;;53.80;33.75;;;8.20;99.90;;;;;;5013171;28;20211;-83
2021/01/01 03:06:31;;;;;;;44.58;28.70;;;8.20;99.90;;;;;;5013221;28;20231;-84
2021/01/01 03:08:57;;;;;;;46.55;31.77;;;8.20;99.90;;;;;;5013282;28;20207;-84
2021/01/01 03:11:24;;;;;;;49.08;30.30;;;8.30;99.90;;;;;;5013259;28;20223;-84
2021/01/01 03:13:51;;;;;;;45.45;30.05;;;8.20;99.90;;;;;;5013348;28;20564;-83
2021/01/01 03:16:17;;;;;;;46.95;29.50;;;8.20;99.90;;;;;;5013416;28;20200;-84
2021/01/01 03:18:43;;;;;;;41.45;30.52;;;8.30;99.90;;;;;;5013192;28;20568;-84
2021/01/01 03:21:09;;;;;;;45.33;30.00;;;8.40;99.90;;;;;;5013189;28;20200;-84
2021/01/01 03:23:35;;;;;;;46.88;31.35;;;8.40;99.90;;;;;;5013203;28;20200;-84
2021/01/01 03:26:02;;;;;;;45.67;29.85;;;8.50;99.90;;;;;;5013082;28;20219;-84
2021/01/01 03:28:28;;;;;;;44.50;30.10;;;8.60;99.90;;;;;;5013129;28;20200;-83
2021/01/01 03:30:55;;;;;;;38.10;24.83;;;8.60;99.90;;;;;;5014111;28;20196;-84
2021/01/01 03:33:21;;;;;;;37.47;25.88;;;8.60;99.90;;;;;;5016549;28;20228;-83
2021/01/01 03:35:48;;;;;;;41.55;24.40;;;8.70;99.90;;;;;;5016806;28;20231;-84
2021/01/01 03:38:15;;;;;;;40.63;26.00;;;8.80;99.90;;;;;;5016936;28;20207;-84
2021/01/01 03:40:41;;;;;;;38.35;25.05;;;8.80;99.90;;;;;;5016510;28;20200;-84
2021/01/01 03:43:07;;;;;;;30.90;22.15;;;8.90;99.90;;;;;;5016330;28;20213;-84
2021/01/01 03:45:33;;;;;;;34.88;22.90;;;8.90;99.90;;;;;;5016503;28;20196;-84
2021/01/01 03:48:00;;;;;;;33.50;22.23;;;9.00;99.90;;;;;;5016465;28;20231;-84
2021/01/01 03:50:26;;;;;;;33.88;24.40;;;9.00;99.90;;;;;;5016417;28;20200;-84
2021/01/01 03:52:53;;;;;;;39.42;25.42;;;8.90;99.90;;;;;;5016600;28;20250;-85
2021/01/01 03:55:19;;;;;;;35.47;22.50;;;8.90;99.90;;;;;;5016613;28;20196;-84
2021/01/01 03:57:45;;;;;;;35.65;24.50;;;8.90;99.90;;;;;;5016525;28;20204;-85
2021/01/01 04:00:12;;;;;;;34.38;23.27;;;8.90;99.90;;;;;;5016178;28;20204;-84
2021/01/01 04:02:39;;;;;;;34.65;23.15;;;8.90;99.90;;;;;;5016239;28;20192;-84
2021/01/01 04:05:07;;;;;;;31.85;22.45;;;9.00;99.90;;;;;;5016180;28;20196;-83
2021/01/01 04:07:34;;;;;;;31.20;22.40;;;9.00;99.90;;;;;;5016074;28;20231;-84
2021/01/01 04:10:00;;;;;;;31.52;22.42;;;9.10;99.90;;;;;;5016112;28;20203;-82
2021/01/01 04:12:26;;;;;;;33.92;23.20;;;9.10;99.90;;;;;;5015995;28;20215;-84
2021/01/01 04:14:52;;;;;;;33.38;22.10;;;9.10;99.90;;;;;;5016109;28;20216;-84
2021/01/01 04:17:19;;;;;;;35.42;24.60;;;9.10;99.90;;;;;;5015889;28;20196;-84
2021/01/01 04:19:45;;;;;;;36.28;21.83;;;9.10;99.90;;;;;;5016209;28;20559;-83
2021/01/01 04:22:12;;;;;;;35.35;23.20;;;9.10;99.90;;;;;;5016177;28;20606;-84
2021/01/01 04:24:38;;;;;;;32.72;21.08;;;9.10;99.90;;;;;;5015645;28;20340;-84
2021/01/01 04:27:05;;;;;;;32.00;22.30;;;9.10;99.90;;;;;;5015506;28;20707;-84
2021/01/01 04:29:31;;;;;;;30.55;21.17;;;9.10;99.90;;;;;;5015846;28;20198;-84
2021/01/01 04:31:57;;;;;;;33.15;22.17;;;9.10;99.90;;;;;;5015607;28;20686;-83
2021/01/01 04:34:23;;;;;;;32.70;21.52;;;9.10;99.90;;;;;;5016035;28;20200;-84
2021/01/01 04:36:50;;;;;;;33.63;22.02;;;9.10;99.90;;;;;;5015789;28;20200;-84
2021/01/01 04:39:17;;;;;;;30.98;22.35;;;9.10;99.90;;;;;;5015534;28;20192;-85
2021/01/01 04:41:45;;;;;;;30.40;21.40;;;9.10;99.90;;;;;;5015334;28;20204;-83
2021/01/01 04:44:11;;;;;;;30.15;22.73;;;9.10;99.90;;;;;;5015150;28;20216;-84
2021/01/01 04:46:38;;;;;;;33.85;23.10;;;9.10;99.90;;;;;;5015258;28;20240;-84
2021/01/01 04:49:05;;;;;;;29.67;19.85;;;9.20;99.90;;;;;;5015628;28;20200;-83
2021/01/01 04:51:31;;;;;;;26.33;21.27;;;9.10;99.90;;;;;;5015197;28;20660;-84
2021/01/01 04:53:58;;;;;;;30.45;22.20;;;9.10;99.90;;;;;;5015261;28;20199;-84
2021/01/01 04:56:25;;;;;;;29.23;21.75;;;9.10;99.90;;;;;;5015410;28;20204;-84
2021/01/01 04:58:52;;;;;;;30.58;22.73;;;9.10;99.90;;;;;;5015159;28;20561;-85
2021/01/01 05:01:22;;;;;;;33.70;22.25;;;9.10;99.90;;;;;;5015138;28;20197;-84
2021/01/01 05:03:48;;;;;;;32.15;22.27;;;9.10;99.90;;;;;;5014924;28;20192;-84
2021/01/01 05:06:26;;;;;;;30.58;21.23;;;9.10;99.90;;;;;;5015001;28;20231;-84
2021/01/01 05:08:52;;;;;;;29.98;22.60;;;9.00;99.90;;;;;;5014955;28;20659;-84
2021/01/01 05:11:21;;;;;;;34.83;21.98;;;9.00;99.90;;;;;;5015019;28;20611;-84
2021/01/01 05:13:56;;;;;;;30.13;22.13;;;9.10;99.90;;;;;;5014641;28;20683;-85
2021/01/01 05:16:22;;;;;;;32.88;23.15;;;9.00;99.90;;;;;;5014847;28;20187;-83
2021/01/01 05:18:48;;;;;;;33.28;22.52;;;9.10;99.90;;;;;;5015037;28;20720;-84
2021/01/01 05:21:22;;;;;;;31.40;21.70;;;9.10;99.90;;;;;;5014684;28;20196;-85
2021/01/01 05:23:50;;;;;;;31.98;21.55;;;9.10;99.90;;;;;;5014589;28;20243;-84
2021/01/01 05:26:17;;;;;;;26.65;18.42;;;9.10;99.90;;;;;;5014566;28;20235;-84
2021/01/01 05:28:56;;;;;;;29.48;21.83;;;9.10;99.90;;;;;;5014430;28;20193;-84
2021/01/01 05:31:23;;;;;;;30.20;22.63;;;9.10;99.90;;;;;;5014458;28;20202;-83
2021/01/01 05:33:56;;;;;;;34.20;22.58;;;9.10;99.90;;;;;;5014419;28;20302;-85
2021/01/01 05:36:30;;;;;;;28.83;20.17;;;9.10;99.90;;;;;;5014494;28;20204;-83
2021/01/01 05:38:58;;;;;;;35.83;21.13;;;9.10;99.90;;;;;;5014282;28;20294;-84
2021/01/01 05:41:35;;;;;;;28.60;20.20;;;9.10;99.90;;;;;;5014357;28;20192;-80
2021/01/01 05:44:10;;;;;;;26.85;20.90;;;9.20;99.90;;;;;;5014167;28;20216;-84
2021/01/01 05:46:37;;;;;;;31.73;21.67;;;9.10;99.90;;;;;;5014256;28;20256;-83
2021/01/01 05:49:04;;;;;;;32.30;21.40;;;9.20;99.90;;;;;;5014291;28;20200;-84
2021/01/01 05:51:30;;;;;;;29.70;20.08;;;9.20;99.90;;;;;;5014301;28;20200;-83
2021/01/01 05:54:11;;;;;;;35.80;22.25;;;9.20;99.90;;;;;;5013835;28;20298;-84
2021/01/01 05:56:39;;;;;;;33.58;22.60;;;9.20;99.90;;;;;;5014493;28;20230;-84
2021/01/01 05:59:10;;;;;;;29.52;19.85;;;9.20;99.90;;;;;;5014204;28;20205;-83
2021/01/01 06:01:40;;;;;;;31.23;21.30;;;9.20;99.90;;;;;;5014114;28;20197;-85
2021/01/01 06:04:07;;;;;;;33.42;21.85;;;9.10;99.90;;;;;;5014448;28;20196;-85
2021/01/01 06:06:34;;;;;;;36.25;21.20;;;9.20;99.90;;;;;;5013928;28;20228;-83
2021/01/01 06:09:05;;;;;;;29.42;20.65;;;9.20;99.90;;;;;;5014009;28;20205;-82
2021/01/01 06:11:36;;;;;;;35.35;22.38;;;9.20;99.90;;;;;;5013871;28;20193;-83
2021/01/01 06:14:06;;;;;;;28.77;21.50;;;9.10;99.90;;;;;;5014002;28;20224;-83
2021/01/01 06:16:44;;;;;;;30.48;23.00;;;9.10;99.90;;;;;;5014222;28;20196;-82
2021/01/01 06:19:12;;;;;;;28.90;22.35;;;9.10;99.90;;;;;;5014300;28;20200;-84
2021/01/01 06:21:42;;;;;;;30.42;21.88;;;9.10;99.90;;;;;;5013588;28;20664;-84
2021/01/01 06:24:18;;;;;;;29.17;20.42;;;9.10;99.90;;;;;;5013592;28;20196;-82
2021/01/01 06:26:44;;;;;;;33.42;21.85;;;9.10;99.90;;;;;;5013745;28;20223;-83
2021/01/01 06:29:15;;;;;;;30.85;20.65;;;9.10;99.90;;;;;;5013795;28;20201;-84
2021/01/01 06:31:46;;;;;;;30.52;21.33;;;9.20;99.90;;;;;;5013653;28;20192;-84
2021/01/01 06:34:30;;;;;;;31.75;21.73;;;9.10;99.90;;;;;;4994084;28;20196;-84
2021/01/01 06:36:56;;;;;;;28.88;19.90;;;9.00;99.90;;;;;;4994143;28;20208;-84
2021/01/01 06:39:43;;;;;;;31.80;20.98;;;9.10;99.90;;;;;;4993794;28;20201;-84
2021/01/01 06:42:11;;;;;;;32.65;22.13;;;9.00;99.90;;;;;;4994191;28;20207;-83
2021/01/01 06:44:39;;;;;;;29.58;21.08;;;9.00;99.90;;;;;;4993722;28;20224;-84
2021/01/01 06:47:09;;;;;;;30.42;20.80;;;9.00;99.90;;;;;;4993859;28;20232;-83
2021/01/01 06:49:38;;;;;;;28.33;21.10;;;9.00;99.90;;;;;;4994027;28;20244;-84
2021/01/01 06:52:12;;;;;;;33.38;22.25;;;8.90;99.90;;;;;;4993987;28;20199;-83
2021/01/01 06:54:54;;;;;;;30.13;22.48;;;8.90;99.90;;;;;;4993813;28;20196;-84
2021/01/01 06:57:23;;;;;;;33.85;21.10;;;8.90;99.90;;;;;;4991295;28;20199;-80
2021/01/01 06:59:49;;;;;;;31.58;21.15;;;8.80;99.90;;;;;;4993871;28;20197;-84
2021/01/01 07:02:21;;;;;;;29.30;21.00;;;8.90;99.90;;;;;;4993784;28;20208;-84
2021/01/01 07:04:48;;;;;;;33.15;22.70;;;8.80;99.90;;;;;;4993504;28;20681;-84
2021/01/01 07:07:40;;;;;;;29.35;20.73;;;8.80;99.90;;;;;;4996935;28;20564;-84
2021/01/01 07:10:08;;;;;;;31.13;22.52;;;8.80;99.90;;;;;;4997631;28;20205;-84
2021/01/01 07:12:35;;;;;;;27.75;20.80;;;8.80;99.90;;;;;;4997792;28;20201;-84
2021/01/01 07:15:01;;;;;;;27.45;19.35;;;8.70;99.90;;;;;;4997642;28;20579;-84
2021/01/01 07:17:46;;;;;;;26.23;20.50;;;8.80;99.90;;;;;;4997376;28;20197;-81
2021/01/01 07:20:14;;;;;;;30.92;21.23;;;8.90;99.90;;;;;;4997571;28;20197;-84
2021/01/01 07:22:40;;;;;;;36.10;21.70;;;8.80;99.90;;;;;;4997075;28;20201;-81
2021/01/01 07:25:08;;;;;;;28.35;20.20;;;8.80;99.90;;;;;;4997447;28;20300;-84
2021/01/01 07:27:35;;;;;;;29.63;20.63;;;8.80;99.90;;;;;;4997362;28;20236;-84
2021/01/01 07:30:13;;;;;;;33.63;20.67;;;8.80;99.90;;;;;;4997237;28;20196;-84
2021/01/01 07:32:40;;;;;;;34.75;22.70;;;8.80;99.90;;;;;;5004358;28;20293;-84
2021/01/01 07:35:10;;;;;;;31.20;22.33;;;8.80;99.90;;;;;;5016539;28;20206;-83
2021/01/01 07:37:37;;;;;;;28.98;20.77;;;8.80;99.90;;;;;;5016730;28;20204;-84
2021/01/01 07:40:05;;;;;;;35.90;23.10;;;8.80;99.90;;;;;;5016473;28;20196;-83
2021/01/01 07:42:31;;;;;;;29.40;20.88;;;8.80;99.90;;;;;;5016448;28;20196;-84
2021/01/01 07:44:57;;;;;;;31.45;22.42;;;8.80;99.90;;;;;;5016429;28;20196;-84
2021/01/01 07:47:24;;;;;;;28.23;21.58;;;8.90;99.90;;;;;;5016527;28;20710;-84
2021/01/01 07:49:52;;;;;;;29.95;22.08;;;8.80;99.90;;;;;;5016464;28;20200;-81
2021/01/01 07:52:18;;;;;;;25.80;20.10;;;8.90;99.90;;;;;;5016404;28;20727;-84
2021/01/01 07:54:48;;;;;;;29.85;20.50;;;8.90;99.90;;;;;;5016445;28;20203;-85
2021/01/01 07:57:19;;;;;;;32.50;20.05;;;8.90;99.90;;;;;;5016587;28;20208;-84
2021/01/01 07:59:46;;;;;;;32.03;20.75;;;8.80;99.90;;;;;;5016337;28;20200;-85
2021/01/01 08:02:12;;;;;;;35.25;22.42;;;8.80;99.90;;;;;;5016168;28;20658;-84
2021/01/01 08:04:39;;;;;;;29.10;19.80;;;8.80;99.90;;;;;;5016093;28;20682;-83
2021/01/01 08:07:06;;;;;;;29.63;21.30;;;8.80;99.90;;;;;;5016053;28;20231;-84
2021/01/01 08:09:33;;;;;;;30.27;21.05;;;8.70;99.90;;;;;;5016148;28;20202;-82
2021/01/01 08:12:06;;;;;;;32.67;20.20;;;8.80;99.90;;;;;;5016162;28;20201;-83
2021/01/01 08:14:33;;;;;;;30.27;21.73;;;8.80;99.90;;;;;;5015797;28;20231;-83
2021/01/01 08:16:59;;;;;;;28.33;19.95;;;8.80;99.90;;;;;;5015734;28;20206;-83
2021/01/01 08:19:25;;;;;;;31.98;21.35;;;8.80;99.90;;;;;;5015911;28;20200;-82
2021/01/01 08:22:06;;;;;;;31.00;21.80;;;8.80;99.90;;;;;;5016070;28;20207;-85
2021/01/01 08:24:36;;;;;;;30.75;21.38;;;8.90;99.90;;;;;;5015759;28;20196;-84
2021/01/01 08:27:03;;;;;;;32.30;20.25;;;8.80;99.90;;;;;;5015856;28;20270;-82
2021/01/01 08:29:29;;;;;;;31.20;22.35;;;8.70;99.90;;;;;;5015732;28;20287;-84
2021/01/01 08:31:58;;;;;;;33.17;22.08;;;8.70;99.90;;;;;;5015773;28;20201;-83
2021/01/01 08:34:24;;;;;;;30.40;20.60;;;8.70;99.90;;;;;;5015835;28;20192;-84
2021/01/01 08:36:52;;;;;;;34.88;22.48;;;8.80;99.90;;;;;;5015670;28;20200;-84
2021/01/01 08:39:18;;;;;;;30.80;22.30;;;8.70;99.90;;;;;;5015500;28;20204;-85
2021/01/01 08:41:47;;;;;;;33.05;22.77;;;8.70;99.90;;;;;;5015716;28;20200;-85
2021/01/01 08:44:14;;;;;;;34.10;23.20;;;8.70;99.90;;;;;;5015537;28;20212;-85
2021/01/01 08:46:40;;;;;;;33.92;23.85;;;8.80;99.90;;;;;;5015459;28;20216;-83
2021/01/01 08:49:16;;;;;;;31.38;22.08;;;8.70;99.90;;;;;;5015661;28;20279;-84
2021/01/01 08:51:42;;;;;;;34.08;23.60;;;8.70;99.90;;;;;;5015407;28;20204;-81
2021/01/01 08:54:09;;;;;;;36.63;23.52;;;8.60;99.90;;;;;;5023736;28;20215;-82
2021/01/01 08:56:36;;;;;;;36.55;24.58;;;8.60;99.90;;;;;;5034748;28;20198;-84
2021/01/01 08:59:10;;;;;;;37.83;25.00;;;8.70;99.90;;;;;;5034502;28;20192;-84
2021/01/01 09:01:36;;;;;;;35.53;25.80;;;8.60;99.90;;;;;;5029608;28;20192;-81
2021/01/01 09:04:03;;;;;;;46.08;26.83;;;8.50;99.90;;;;;;5034879;28;20196;-85
2021/01/01 09:06:29;;;;;;;38.25;26.02;;;8.50;99.90;;;;;;5034580;28;20269;-84
2021/01/01 09:09:06;;;;;;;46.47;25.77;;;8.50;99.90;;;;;;5034737;28;20237;-84
2021/01/01 09:11:33;;;;;;;40.88;27.40;;;8.60;99.90;;;;;;5034174;28;20192;-82
2021/01/01 09:14:01;;;;;;;39.95;26.35;;;8.60;99.90;;;;;;5034609;28;20215;-84
2021/01/01 09:16:28;;;;;;;36.05;25.67;;;8.60;99.90;;;;;;5034579;28;20196;-84
2021/01/01 09:18:54;;;;;;;43.33;26.77;;;8.70;99.90;;;;;;5034461;28;20218;-83
2021/01/01 09:21:21;;;;;;;42.25;28.10;;;8.60;99.90;;;;;;5034587;28;20196;-83
2021/01/01 09:23:52;;;;;;;43.30;26.77;;;8.50;99.90;;;;;;5034244;28;20196;-84
2021/01/01 09:26:22;;;;;;;40.15;27.20;;;8.60;99.90;;;;;;5034167;28;20195;-81
2021/01/01 09:28:49;;;;;;;45.70;29.13;;;8.60;99.90;;;;;;5033391;28;20254;-84
2021/01/01 09:31:17;;;;;;;50.70;28.15;;;8.60;99.90;;;;;;5034472;28;20199;-84
2021/01/01 09:34:01;;;;;;;50.42;29.23;;;8.60;99.90;;;;;;5033989;28;20228;-84
2021/01/01 09:36:27;;;;;;;38.53;27.08;;;8.70;99.90;;;;;;5034266;28;20643;-84
2021/01/01 09:38:53;;;;;;;39.40;27.55;;;8.60;99.90;;;;;;5034243;28;20559;-84
2021/01/01 09:41:20;;;;;;;48.10;30.70;;;8.60;99.90;;;;;;5034200;28;20200;-84
2021/01/01 09:43:46;;;;;;;42.38;29.85;;;8.70;99.90;;;;;;5033957;28;20215;-83
2021/01/01 09:46:12;;;;;;;47.40;29.95;;;8.70;99.90;;;;;;5034093;28;20196;-84
2021/01/01 09:48:38;;;;;;;40.78;27.63;;;8.70;99.90;;;;;;5033854;28;20232;-84
2021/01/01 09:51:06;;;;;;;42.78;29.10;;;8.70;99.90;;;;;;5034010;28;20203;-85
2021/01/01 09:53:32;;;;;;;43.72;28.40;;;8.70;99.90;;;;;;5033973;28;20218;-84
2021/01/01 09:55:58;;;;;;;42.90;27.50;;;8.60;99.90;;;;;;5033775;28;20675;-83
2021/01/01 09:58:24;;;;;;;44.00;29.63;;;8.70;99.90;;;;;;5033715;28;20269;-84
2021/01/01 10:00:51;;;;;;;50.88;29.92;;;8.60;99.90;;;;;;5033862;28;20192;-83
2021/01/01 10:03:18;;;;;;;45.17;29.83;;;8.60;99.90;;;;;;5033884;28;20196;-82
2021/01/01 10:05:47;;;;;;;46.63;30.92;;;8.60;99.90;;;;;;5033784;28;20195;-84
2021/01/01 10:08:14;;;;;;;41.75;27.55;;;8.70;99.90;;;;;;5033625;28;20219;-83
2021/01/01 10:10:41;;;;;;;48.38;31.05;;;8.70;99.90;;;;;;5033712;28;20207;-80
2021/01/01 10:13:07;;;;;;;49.22;31.50;;;8.70;99.90;;;;;;5033812;28;20631;-84
2021/01/01 10:15:34;;;;;;;43.70;30.08;;;8.70;99.90;;;;;;5033494;28;20191;-83
2021/01/01 10:18:00;;;;;;;44.53;30.42;;;8.60;99.90;;;;;;5033480;28;20211;-83
2021/01/01 10:20:26;;;;;;;50.75;31.75;;;8.60;99.90;;;;;;5033820;28;20202;-84
2021/01/01 10:22:52;;;;;;;49.38;32.67;;;8.60;99.90;;;;;;5033462;28;20273;-84
2021/01/01 10:25:19;;;;;;;51.67;30.63;;;8.60;99.90;;;;;;5033742;28;20195;-81
2021/01/01 10:27:46;;;;;;;46.92;30.05;;;8.60;99.90;;;;;;5033202;28;20227;-84
2021/01/01 10:30:13;;;;;;;48.30;31.73;;;8.60;99.90;;;;;;5030377;28;20246;-84
2021/01/01 10:32:40;;;;;;;54.10;32.35;;;8.70;99.90;;;;;;5013288;28;20242;-83
2021/01/01 10:35:07;;;;;;;57.47;34.00;;;8.70;99.90;;;;;;5033549;28;20241;-81
2021/01/01 10:37:34;;;;;;;50.75;32.88;;;8.70;99.90;;;;;;5032186;28;20234;-81
2021/01/01 10:40:00;;;;;;;47.53;30.60;;;8.70;99.90;;;;;;5034682;28;20199;-81
2021/01/01 10:42:27;;;;;;;47.90;32.60;;;8.60;99.90;;;;;;5039288;28;20678;-80
2021/01/01 10:44:54;;;;;;;55.42;33.30;;;8.60;99.90;;;;;;5039355;28;20549;-81
2021/01/01 10:47:21;;;;;;;59.90;35.00;;;8.60;99.90;;;;;;5039709;28;20234;-81
2021/01/01 10:49:47;;;;;;;55.75;33.60;;;8.60;99.90;;;;;;5039717;28;20191;-81
2021/01/01 10:52:13;;;;;;;53.05;33.20;;;8.60;99.90;;;;;;5039685;28;20199;-81
2021/01/01 10:54:39;;;;;;;63.10;34.03;;;8.60;99.90;;;;;;5039707;28;20210;-81
2021/01/01 10:57:06;;;;;;;51.72;35.20;;;8.60;99.90;;;;;;5039727;28;20203;-80
2021/01/01 10:59:33;;;;;;;58.13;36.92;;;8.60;99.90;;;;;;5039667;28;20195;-81
2021/01/01 11:02:00;;;;;;;51.95;34.30;;;8.60;99.90;;;;;;5039622;28;20205;-81
2021/01/01 11:04:27;;;;;;;59.55;34.97;;;8.60;99.90;;;;;;5039377;28;20195;-81
2021/01/01 11:06:53;;;;;;;57.28;35.45;;;8.60;99.90;;;;;;5039458;28;20220;-81
2021/01/01 11:09:20;;;;;;;59.80;35.97;;;8.60;99.90;;;;;;5039415;28;20658;-81
2021/01/01 11:11:48;;;;;;;60.10;37.67;;;8.60;99.90;;;;;;5039497;28;20195;-81
2021/01/01 11:14:18;;;;;;;60.13;35.50;;;8.60;99.90;;;;;;5039291;28;20221;-81
2021/01/01 12:22:53;;;;;;;54.13;37.70;;;8.90;99.90;;;;;;5035515;28;20292;-82
2021/01/01 12:25:19;;;;;;;55.95;36.78;;;9.00;99.90;;;;;;5035697;28;20320;-82
2021/01/01 12:27:47;;;;;;;52.50;35.60;;;9.10;99.90;;;;;;5035605;28;20216;-82
2021/01/01 12:30:15;;;;;;;54.40;33.70;;;9.10;99.90;;;;;;5035597;28;20219;-82
2021/01/01 12:32:42;;;;;;;56.25;34.38;;;9.20;99.90;;;;;;5035500;28;20227;-82
2021/01/01 12:35:10;;;;;;;53.45;33.53;;;9.30;99.90;;;;;;5035519;28;20196;-82
2021/01/01 12:37:37;;;;;;;54.40;33.63;;;9.30;99.90;;;;;;5035410;28;20202;-82
2021/01/01 12:40:07;;;;;;;51.13;32.80;;;9.30;99.90;;;;;;5035243;28;20200;-82
2021/01/01 12:42:33;;;;;;;53.30;33.45;;;9.30;99.90;;;;;;5035076;28;20220;-82
2021/01/01 12:44:59;;;;;;;47.92;31.02;;;9.30;99.90;;;;;;5035189;28;20558;-82
2021/01/01 12:47:26;;;;;;;43.13;28.50;;;9.20;99.90;;;;;;5035169;28;20687;-82
2021/01/01 12:49:53;;;;;;;49.58;29.70;;;9.20;99.90;;;;;;5035130;28;20651;-82
2021/01/01 12:52:19;;;;;;;46.47;29.77;;;9.10;99.90;;;;;;5035237;28;20203;-82
2021/01/01 12:54:45;;;;;;;61.58;35.17;;;9.10;99.90;;;;;;5035068;28;20196;-82
2021/01/01 12:57:13;;;;;;;50.55;28.80;;;9.20;99.90;;;;;;5034902;28;20199;-82
2021/01/01 12:59:39;;;;;;;40.90;29.10;;;9.20;99.90;;;;;;5034986;28;20580;-82
2021/01/01 13:02:05;;;;;;;51.47;30.23;;;9.30;99.90;;;;;;5034965;28;20195;-82
2021/01/01 13:04:32;;;;;;;42.63;28.35;;;9.30;99.90;;;;;;5033800;28;20199;-82
2021/01/01 13:06:58;;;;;;;40.95;27.77;;;9.40;99.90;;;;;;5034971;28;20227;-82
2021/01/01 13:09:25;;;;;;;46.75;29.90;;;9.40;99.90;;;;;;5035077;28;20253;-81
2021/01/01 13:11:51;;;;;;;41.97;27.25;;;9.40;99.90;;;;;;5034570;28;20191;-80
2021/01/01 13:14:18;;;;;;;47.00;28.85;;;9.40;99.90;;;;;;5034513;28;20258;-80
2021/01/01 13:16:46;;;;;;;39.63;26.85;;;9.40;99.90;;;;;;5034513;28;21020;-80
2021/01/01 13:19:12;;;;;;;39.95;25.25;;;9.20;99.90;;;;;;5034247;28;20200;-80
2021/01/01 13:21:41;;;;;;;37.08;24.85;;;9.30;99.90;;;;;;5034703;28;20577;-80
2021/01/01 13:24:08;;;;;;;43.95;28.92;;;9.30;99.90;;;;;;5034424;28;20195;-81
2021/01/01 13:26:34;;;;;;;42.13;25.60;;;9.40;99.90;;;;;;5034300;28;20206;-80
2021/01/01 13:29:03;;;;;;;42.45;24.50;;;9.20;99.90;;;;;;5034187;28;20653;-80
2021/01/01 13:31:39;;;;;;;38.05;25.75;;;9.20;99.90;;;;;;5034198;28;20203;-80
2021/01/01 13:34:07;;;;;;;36.20;23.40;;;9.20;99.90;;;;;;5034061;28;20545;-80
2021/01/01 13:36:34;;;;;;;32.45;20.65;;;9.30;99.90;;;;;;5034274;28;20200;-80
2021/01/01 13:39:01;;;;;;;32.20;22.40;;;9.20;99.90;;;;;;5034052;28;20653;-81
2021/01/01 13:41:27;;;;;;;34.40;21.55;;;9.20;99.90;;;;;;5033951;28;20200;-80
2021/01/01 13:43:54;;;;;;;31.90;20.45;;;9.30;99.90;;;;;;5033903;28;20196;-80